Terminal Aerodrome Forecast
Issued by NWS Tampa Bay Area, FL

Home | Current Version | Previous Version | Text Only | Print | Product List | Glossary On
Versions: 1 2 3 4 5 6 7 8 9 10 11 12 13 14 15
000
FTUS42 KTBW 170530
TAFSRQ
TAF
KSRQ 170530Z 1706/1806 09006KT P6SM BKN250
     FM171400 11008KT P6SM FEW025 SCT250
     FM171700 15009KT P6SM FEW040 SCT250
     FM172100 20008KT P6SM SCT250
     FM180100 VRB03KT P6SM SCT250=

USA.gov is the U.S. government's official web portal to all federal, state and local government web resources and services.